createdAt,value
2023-06-19T00:01:10.550Z,99406.16
2023-06-19T00:03:37.697Z,99392.66
2023-06-19T00:06:06.762Z,99400.13
2023-06-19T00:08:33.691Z,99392.66
2023-06-19T00:11:00.497Z,99405.09
2023-06-19T00:13:27.439Z,99372.09
2023-06-19T00:15:54.447Z,99388.25
2023-06-19T00:18:21.321Z,99398.66
2023-06-19T00:20:48.520Z,99397.00
2023-06-19T00:23:18.175Z,99390.59
2023-06-19T00:25:45.779Z,99393.28
2023-06-19T00:28:16.113Z,99379.78
2023-06-19T00:30:43.151Z,99390.38
2023-06-19T00:33:10.640Z,99383.50
2023-06-19T00:35:37.827Z,99381.44
2023-06-19T00:38:06.554Z,99375.63
2023-06-19T00:40:35.163Z,99394.94
2023-06-19T00:43:02.335Z,99392.03
2023-06-19T00:45:29.646Z,99390.16
2023-06-19T00:47:58.702Z,99385.59
2023-06-19T00:50:27.037Z,99389.75
2023-06-19T00:52:54.379Z,99376.44
2023-06-19T00:55:23.145Z,99382.25
2023-06-19T00:57:51.271Z,99379.34
2023-06-19T01:00:19.134Z,99389.53
2023-06-19T01:02:48.230Z,99396.00
2023-06-19T01:05:16.352Z,99401.38
2023-06-19T01:07:46.942Z,99397.84
2023-06-19T01:10:21.413Z,99392.44
2023-06-19T01:13:01.503Z,99410.50
2023-06-19T01:15:28.643Z,99392.84
2023-06-19T01:17:57.586Z,99405.94
2023-06-19T01:20:25.961Z,99399.09
2023-06-19T01:22:53.201Z,99394.94
2023-06-19T01:25:20.091Z,99393.50
2023-06-19T01:27:48.332Z,99398.69
2023-06-19T01:30:15.510Z,99400.75
2023-06-19T01:32:42.386Z,99409.88
2023-06-19T01:35:10.920Z,99408.84
2023-06-19T01:37:39.433Z,99400.13
2023-06-19T01:40:10.979Z,99397.22
2023-06-19T01:42:42.221Z,99409.47
2023-06-19T01:45:09.804Z,99417.97
2023-06-19T01:47:37.007Z,99418.81
2023-06-19T01:50:04.110Z,99415.50
2023-06-19T01:52:31.283Z,99424.00
2023-06-19T01:54:58.160Z,99415.09
2023-06-19T01:57:25.228Z,99423.78
2023-06-19T01:59:52.074Z,99429.00
2023-06-19T02:02:18.929Z,99416.94
2023-06-19T02:04:45.790Z,99415.09
2023-06-19T02:07:12.778Z,99428.81
2023-06-19T02:09:40.600Z,99416.94
2023-06-19T02:12:08.407Z,99421.94
2023-06-19T02:14:35.329Z,99426.06
2023-06-19T02:17:02.173Z,99437.28
2023-06-19T02:19:29.078Z,99430.44
2023-06-19T02:21:56.076Z,99432.09
2023-06-19T02:24:26.474Z,99442.28
2023-06-19T02:26:53.860Z,99424.22
2023-06-19T02:29:21.349Z,99432.72
2023-06-19T02:31:48.258Z,99440.59
2023-06-19T02:34:15.268Z,99431.47
2023-06-19T02:36:42.232Z,99435.63
2023-06-19T02:39:10.298Z,99443.72
2023-06-19T02:41:39.329Z,99444.34
2023-06-19T02:44:06.250Z,99449.34
2023-06-19T02:46:33.632Z,99446.22
2023-06-19T02:49:02.017Z,99447.91
2023-06-19T02:51:28.954Z,99455.97
2023-06-19T02:53:56.119Z,99464.91
2023-06-19T02:56:24.173Z,99460.16
2023-06-19T02:58:51.047Z,99471.75
2023-06-19T03:01:18.426Z,99476.13
2023-06-19T03:03:47.807Z,99474.91
2023-06-19T03:06:14.858Z,99469.03
2023-06-19T03:08:41.986Z,99470.09
2023-06-19T03:11:08.837Z,99472.78
2023-06-19T03:13:51.374Z,99467.19
2023-06-19T03:16:20.524Z,99470.69
2023-06-19T03:18:51.745Z,99465.94
2023-06-19T03:21:21.430Z,99478.19
2023-06-19T03:23:50.024Z,99463.44
2023-06-19T03:26:22.962Z,99472.13
2023-06-19T03:28:49.817Z,99468.66
2023-06-19T03:31:16.971Z,99475.72
2023-06-19T03:33:44.474Z,99475.69
2023-06-19T03:36:11.851Z,99474.19
2023-06-19T03:38:49.300Z,99485.81
2023-06-19T03:41:19.774Z,99475.59
2023-06-19T03:43:47.670Z,99475.25
2023-06-19T03:46:15.305Z,99489.97
2023-06-19T03:48:42.313Z,99488.72
2023-06-19T03:51:09.297Z,99499.56
2023-06-19T03:53:36.171Z,99491.03
2023-06-19T03:56:03.207Z,99501.63
2023-06-19T03:58:30.203Z,99500.59
2023-06-19T04:00:57.072Z,99502.06
2023-06-19T04:03:24.287Z,99502.91
2023-06-19T04:05:51.759Z,99513.09
2023-06-19T04:08:18.805Z,99509.56
2023-06-19T04:10:45.747Z,99509.72
2023-06-19T04:13:13.109Z,99511.56
2023-06-19T04:15:40.373Z,99505.34
2023-06-19T04:18:07.337Z,99506.25
2023-06-19T04:20:35.152Z,99501.00
2023-06-19T04:23:02.119Z,99502.66
2023-06-19T04:25:29.192Z,99508.28
2023-06-19T04:27:57.147Z,99499.31
2023-06-19T04:30:24.401Z,99505.75
2023-06-19T04:32:51.562Z,99503.91
2023-06-19T04:35:19.653Z,99509.31
2023-06-19T04:40:13.350Z,99519.91
2023-06-19T04:42:40.162Z,99524.13
2023-06-19T04:45:10.823Z,99532.66
2023-06-19T04:47:51.634Z,99529.34
2023-06-19T04:50:19.867Z,99527.91
2023-06-19T04:52:46.843Z,99524.59
2023-06-19T04:55:13.704Z,99523.97
2023-06-19T04:57:40.671Z,99514.84
2023-06-19T05:00:08.313Z,99527.91
2023-06-19T05:02:35.669Z,99521.66
2023-06-19T05:05:04.663Z,99512.09
2023-06-19T05:07:34.410Z,99533.22
2023-06-19T05:10:01.433Z,99529.09
2023-06-19T05:12:28.326Z,99530.31
2023-06-19T05:14:55.243Z,99533.25
2023-06-19T05:17:22.289Z,99539.69
2023-06-19T05:19:49.742Z,99544.03
2023-06-19T05:22:19.293Z,99542.44
2023-06-19T05:24:46.283Z,99550.34
2023-06-19T05:27:13.167Z,99549.94
2023-06-19T05:29:40.149Z,99550.97
2023-06-19T05:32:07.416Z,99547.66
2023-06-19T05:34:34.366Z,99552.84
2023-06-19T05:37:04.687Z,99559.91
2023-06-19T05:39:31.698Z,99555.31
2023-06-19T05:41:58.712Z,99562.75
2023-06-19T05:44:25.554Z,99553.91
2023-06-19T05:46:52.374Z,99555.75
2023-06-19T05:49:19.363Z,99552.81
2023-06-19T05:51:46.328Z,99559.81
2023-06-19T05:54:13.150Z,99558.13
2023-06-19T05:56:40.779Z,99553.41
2023-06-19T05:59:07.606Z,99546.44
2023-06-19T06:01:34.551Z,99561.28
2023-06-19T06:04:02.838Z,99565.47
2023-06-19T06:06:29.818Z,99568.59
2023-06-19T06:08:56.848Z,99565.41
2023-06-19T06:11:24.376Z,99577.00
2023-06-19T06:13:51.404Z,99561.44
2023-06-19T06:16:18.380Z,99569.56
2023-06-19T06:18:46.688Z,99569.03
2023-06-19T06:21:14.385Z,99572.19
2023-06-19T06:23:46.349Z,99566.88
2023-06-19T06:26:13.494Z,99573.28
2023-06-19T06:28:40.750Z,99576.56
2023-06-19T06:31:08.281Z,99581.53
2023-06-19T06:33:35.315Z,99588.63
2023-06-19T06:36:02.607Z,99582.44
2023-06-19T06:38:29.556Z,99590.56
2023-06-19T06:40:56.538Z,99595.84
2023-06-19T06:43:23.422Z,99592.72
2023-06-19T06:45:50.331Z,99595.81
2023-06-19T06:48:18.034Z,99601.81
2023-06-19T06:50:44.938Z,99596.88
2023-06-19T06:53:11.861Z,99596.34
2023-06-19T06:55:38.722Z,99602.66
2023-06-19T06:58:06.481Z,99608.13
2023-06-19T07:00:33.635Z,99600.25
2023-06-19T07:03:00.865Z,99601.38
2023-06-19T07:05:30.165Z,99602.53
2023-06-19T07:07:57.156Z,99613.38
2023-06-19T07:10:25.141Z,99607.75
2023-06-19T07:12:52.648Z,99609.22
2023-06-19T07:15:20.587Z,99613.94
2023-06-19T07:17:48.380Z,99609.75
2023-06-19T07:20:16.011Z,99608.63
2023-06-19T07:22:43.998Z,99623.22
2023-06-19T07:25:12.358Z,99619.31
2023-06-19T07:27:41.578Z,99625.72
2023-06-19T07:30:09.540Z,99630.78
2023-06-19T07:32:36.464Z,99632.47
2023-06-19T07:35:03.643Z,99627.44
2023-06-19T07:37:30.535Z,99620.06
2023-06-19T07:39:57.504Z,99625.31
2023-06-19T07:42:25.043Z,99619.81
2023-06-19T07:44:52.078Z,99630.25
2023-06-19T07:47:19.887Z,99625.50
2023-06-19T07:49:46.819Z,99626.47
2023-06-19T07:52:14.728Z,99631.22
2023-06-19T07:54:58.040Z,99631.94
2023-06-19T07:57:26.703Z,99633.84
2023-06-19T07:59:55.738Z,99631.38
2023-06-19T08:02:22.910Z,99643.50
2023-06-19T08:04:50.089Z,99647.59
2023-06-19T08:07:17.569Z,99639.28
2023-06-19T08:09:44.511Z,99636.41
2023-06-19T08:12:11.440Z,99643.94
2023-06-19T08:14:39.706Z,99642.25
2023-06-19T08:17:07.402Z,99643.22
2023-06-19T08:19:34.630Z,99637.88
2023-06-19T08:22:01.483Z,99642.56
2023-06-19T08:24:28.775Z,99653.81
2023-06-19T08:26:55.695Z,99646.19
2023-06-19T08:29:23.840Z,99649.03
2023-06-19T08:31:51.002Z,99648.50
2023-06-19T08:34:17.889Z,99649.75
2023-06-19T08:36:44.939Z,99654.44
2023-06-19T08:39:11.969Z,99654.78
2023-06-19T08:41:39.708Z,99654.75
2023-06-19T08:44:06.927Z,99658.50
2023-06-19T08:46:35.552Z,99654.34
2023-06-19T08:49:02.950Z,99649.16
2023-06-19T08:51:33.695Z,99652.75
2023-06-19T08:54:06.343Z,99653.56
2023-06-19T08:56:35.447Z,99654.81
2023-06-19T08:59:10.419Z,99655.06
2023-06-19T09:01:38.015Z,99655.47
2023-06-19T09:04:13.165Z,99662.25
2023-06-19T09:07:08.631Z,99660.41
2023-06-19T09:09:53.805Z,99658.47
2023-06-19T09:12:20.747Z,99655.63
2023-06-19T09:15:00.700Z,99650.25
2023-06-19T09:17:28.085Z,99656.22
2023-06-19T09:19:59.061Z,99647.56
2023-06-19T09:22:26.501Z,99652.78
2023-06-19T09:24:53.595Z,99654.78
2023-06-19T09:27:21.109Z,99654.31
2023-06-19T09:29:49.790Z,99654.28
2023-06-19T09:32:23.393Z,99653.28
2023-06-19T09:34:57.015Z,99649.91
2023-06-19T09:37:29.068Z,99646.53
2023-06-19T09:40:12.221Z,99644.09
2023-06-19T09:42:41.336Z,99638.84
2023-06-19T09:45:19.999Z,99644.00
2023-06-19T09:47:50.363Z,99634.59
2023-06-19T09:50:18.801Z,99635.63
2023-06-19T09:52:52.656Z,99629.22
2023-06-19T09:55:20.668Z,99629.84
2023-06-19T09:57:49.735Z,99625.47
2023-06-19T10:00:17.790Z,99618.56
2023-06-19T10:02:46.605Z,99613.44
2023-06-19T10:05:15.246Z,99616.09
2023-06-19T10:07:45.638Z,99605.66
2023-06-19T10:10:35.508Z,99606.28
2023-06-19T10:13:16.886Z,99604.25
2023-06-19T10:15:45.780Z,99595.53
2023-06-19T10:18:21.868Z,99606.41
2023-06-19T10:20:49.693Z,99594.56
2023-06-19T10:23:22.581Z,99596.72
2023-06-19T10:25:50.724Z,99586.47
2023-06-19T10:28:29.131Z,99587.69
2023-06-19T10:31:01.144Z,99588.91
2023-06-19T10:33:35.804Z,99581.16
2023-06-19T10:36:15.401Z,99583.72
2023-06-19T10:38:44.619Z,99583.31
2023-06-19T10:41:22.469Z,99575.56
2023-06-19T10:43:58.401Z,99566.53
2023-06-19T10:46:26.329Z,99551.41
2023-06-19T10:48:57.752Z,99554.81
2023-06-19T10:51:25.173Z,99549.84
2023-06-19T10:53:55.261Z,99552.03
2023-06-19T10:56:23.369Z,99551.69
2023-06-19T10:59:01.093Z,99551.06
2023-06-19T11:01:39.503Z,99543.66
2023-06-19T11:04:11.625Z,99534.81
2023-06-19T11:06:40.607Z,99544.06
2023-06-19T11:09:09.245Z,99538.94
2023-06-19T11:11:54.255Z,99531.28
2023-06-19T11:14:21.144Z,99530.19
2023-06-19T11:16:49.100Z,99534.91
2023-06-19T11:19:31.563Z,99530.19
2023-06-19T11:21:58.797Z,99532.75
2023-06-19T11:24:25.938Z,99527.28
2023-06-19T11:26:53.488Z,99525.19
2023-06-19T11:29:26.122Z,99526.22
2023-06-19T11:32:09.982Z,99526.22
2023-06-19T11:34:40.885Z,99517.31
2023-06-19T11:37:15.410Z,99527.03
2023-06-19T11:39:45.452Z,99532.91
2023-06-19T11:42:13.019Z,99530.38
2023-06-19T11:45:04.906Z,99534.56
2023-06-19T11:47:34.723Z,99528.31
2023-06-19T11:50:01.824Z,99525.91
2023-06-19T11:52:30.197Z,99525.72
2023-06-19T11:54:58.164Z,99530.03
2023-06-19T11:57:25.135Z,99533.59
2023-06-19T11:59:52.025Z,99521.28
2023-06-19T12:02:18.960Z,99540.56
2023-06-19T12:04:46.100Z,99546.03
2023-06-19T12:07:13.165Z,99544.06
2023-06-19T12:09:40.557Z,99547.06
2023-06-19T12:12:08.431Z,99539.06
2023-06-19T12:14:35.451Z,99539.41
2023-06-19T12:17:02.373Z,99533.13
2023-06-19T12:19:29.356Z,99532.63
2023-06-19T12:21:56.365Z,99533.47
2023-06-19T12:24:23.454Z,99529.56
2023-06-19T12:26:50.296Z,99520.66
2023-06-19T12:29:17.129Z,99521.09
2023-06-19T12:31:45.093Z,99517.63
2023-06-19T12:34:28.638Z,99509.84
2023-06-19T12:36:58.571Z,99506.72
2023-06-19T12:39:26.196Z,99509.19
2023-06-19T12:41:53.588Z,99503.53
2023-06-19T12:44:23.050Z,99494.44
2023-06-19T12:46:50.171Z,99498.81
2023-06-19T12:49:17.293Z,99497.66
2023-06-19T12:51:44.254Z,99485.28
2023-06-19T12:54:11.124Z,99488.75
2023-06-19T12:56:38.048Z,99485.19
2023-06-19T12:59:04.995Z,99488.63
2023-06-19T13:01:31.995Z,99485.97
2023-06-19T13:03:58.884Z,99482.34
2023-06-19T13:06:26.350Z,99485.00
2023-06-19T13:08:53.352Z,99485.00
2023-06-19T13:11:20.280Z,99482.41
2023-06-19T13:13:47.215Z,99485.53
2023-06-19T13:16:15.213Z,99490.09
2023-06-19T13:18:42.278Z,99479.28
2023-06-19T13:21:09.260Z,99477.25
2023-06-19T13:23:36.200Z,99477.31
2023-06-19T13:26:03.120Z,99470.81
2023-06-19T13:28:30.084Z,99479.06
2023-06-19T13:30:56.975Z,99473.13
2023-06-19T13:33:23.845Z,99480.88
2023-06-19T13:35:50.730Z,99479.84
2023-06-19T13:38:18.399Z,99472.53
2023-06-19T13:40:45.712Z,99474.06
2023-06-19T13:43:12.791Z,99463.38
2023-06-19T13:45:39.989Z,99467.56
2023-06-19T13:48:07.774Z,99473.34
2023-06-19T13:50:35.085Z,99466.81
2023-06-19T13:53:03.081Z,99459.66
2023-06-19T13:55:29.996Z,99465.25
2023-06-19T13:57:56.899Z,99460.03
2023-06-19T14:00:24.163Z,99452.38
2023-06-19T14:02:51.410Z,99460.63
2023-06-19T14:05:18.690Z,99467.09
2023-06-19T14:07:46.072Z,99467.47
2023-06-19T14:10:13.060Z,99459.59
2023-06-19T14:12:39.948Z,99453.63
2023-06-19T14:15:09.358Z,99448.59
2023-06-19T14:17:36.529Z,99450.63
2023-06-19T14:20:05.764Z,99436.72
2023-06-19T14:22:33.024Z,99442.44
2023-06-19T14:25:03.031Z,99451.59
2023-06-19T14:27:30.469Z,99453.06
2023-06-19T14:29:57.665Z,99455.59
2023-06-19T14:32:25.269Z,99466.34
2023-06-19T14:34:52.339Z,99471.06
2023-06-19T14:37:19.408Z,99475.50
2023-06-19T14:39:46.684Z,99467.97
2023-06-19T14:42:13.657Z,99473.53
2023-06-19T14:44:40.591Z,99485.41
2023-06-19T14:47:08.026Z,99491.47
2023-06-19T14:49:34.931Z,99490.56
2023-06-19T14:52:02.067Z,99495.66
2023-06-19T14:54:29.095Z,99497.91
2023-06-19T14:56:55.961Z,99511.88
2023-06-19T14:59:22.987Z,99526.41
2023-06-19T15:01:49.952Z,99522.63
2023-06-19T15:04:17.104Z,99532.81
2023-06-19T15:06:44.157Z,99526.78
2023-06-19T15:09:11.188Z,99525.97
2023-06-19T15:11:38.120Z,99513.63
2023-06-19T15:14:04.998Z,99497.50
2023-06-19T15:16:31.905Z,99484.16
2023-06-19T15:18:58.961Z,99496.66
2023-06-19T15:21:25.835Z,99487.00
2023-06-19T15:23:59.363Z,99488.00
2023-06-19T15:26:26.881Z,99480.59
2023-06-19T15:28:54.976Z,99478.84
2023-06-19T15:31:25.172Z,99492.78
2023-06-19T15:33:52.253Z,99497.78
2023-06-19T15:36:20.279Z,99498.44
2023-06-19T15:38:47.170Z,99490.66
2023-06-19T15:41:14.398Z,99486.88
2023-06-19T15:43:43.144Z,99472.50
2023-06-19T15:46:10.352Z,99469.78
2023-06-19T15:48:37.352Z,99456.06
2023-06-19T15:51:04.613Z,99467.34
2023-06-19T15:53:31.499Z,99469.50
2023-06-19T15:55:59.326Z,99477.63
2023-06-19T15:58:26.338Z,99481.97
2023-06-19T16:00:54.293Z,99470.47
2023-06-19T16:03:24.548Z,99471.47
2023-06-19T16:08:29.151Z,99471.13
2023-06-19T16:10:56.100Z,99469.56
2023-06-19T16:13:23.080Z,99462.84
2023-06-19T16:15:50.033Z,99456.28
2023-06-19T16:18:16.931Z,99460.22
2023-06-19T16:20:43.995Z,99470.34
2023-06-19T16:23:10.873Z,99474.09
2023-06-19T16:25:37.762Z,99474.78
2023-06-19T16:28:04.822Z,99470.34
2023-06-19T16:30:31.856Z,99470.19
2023-06-19T16:32:58.773Z,99473.19
2023-06-19T16:35:25.771Z,99483.22
2023-06-19T16:37:57.197Z,99481.84
2023-06-19T16:40:26.472Z,99479.31
2023-06-19T16:42:53.981Z,99489.78
2023-06-19T16:45:23.273Z,99481.97
2023-06-19T16:47:50.305Z,99487.22
2023-06-19T16:50:17.231Z,99485.66
2023-06-19T16:52:44.649Z,99481.41
2023-06-19T16:55:11.613Z,99485.91
2023-06-19T16:57:38.525Z,99492.97
2023-06-19T17:00:06.297Z,99498.25
2023-06-19T17:02:33.326Z,99509.50
2023-06-19T17:05:00.324Z,99515.75
2023-06-19T17:07:27.224Z,99519.00
2023-06-19T17:09:54.064Z,99521.31
2023-06-19T17:12:20.912Z,99526.69
2023-06-19T17:14:47.768Z,99529.41
2023-06-19T17:17:14.587Z,99525.31
2023-06-19T17:19:41.463Z,99530.66
2023-06-19T17:22:08.313Z,99531.69
2023-06-19T17:24:35.276Z,99535.63
2023-06-19T17:27:02.249Z,99530.56
2023-06-19T17:29:29.130Z,99520.97
2023-06-19T17:31:57.923Z,99512.47
2023-06-19T17:34:24.920Z,99525.97
2023-06-19T17:36:51.997Z,99536.75
2023-06-19T17:39:18.932Z,99545.13
2023-06-19T17:41:45.891Z,99536.50
2023-06-19T17:44:12.800Z,99545.78
2023-06-19T17:46:39.866Z,99542.16
2023-06-19T17:49:07.643Z,99558.03
2023-06-19T17:51:35.078Z,99571.03
2023-06-19T17:54:05.445Z,99572.03
2023-06-19T17:56:33.181Z,99579.28
2023-06-19T17:59:00.184Z,99584.94
2023-06-19T18:01:27.122Z,99589.28
2023-06-19T18:03:54.326Z,99595.13
2023-06-19T18:06:22.180Z,99606.78
2023-06-19T18:08:49.271Z,99630.19
2023-06-19T18:11:16.288Z,99638.72
2023-06-19T18:13:43.310Z,99652.94
2023-06-19T18:16:12.419Z,99661.00
2023-06-19T18:18:40.432Z,99659.25
2023-06-19T18:21:07.434Z,99674.63
2023-06-19T18:23:34.355Z,99673.22
2023-06-19T18:26:01.411Z,99672.63
2023-06-19T18:28:28.348Z,99662.66
2023-06-19T18:30:55.276Z,99665.72
2023-06-19T18:33:22.158Z,99665.44
2023-06-19T18:35:49.028Z,99664.63
2023-06-19T18:38:16.009Z,99660.91
2023-06-19T18:40:43.119Z,99662.22
2023-06-19T18:43:10.037Z,99663.88
2023-06-19T18:45:37.463Z,99659.75
2023-06-19T18:48:04.560Z,99668.69
2023-06-19T18:50:31.757Z,99673.03
2023-06-19T18:52:58.705Z,99669.66
2023-06-19T18:55:25.916Z,99675.72
2023-06-19T18:57:52.774Z,99679.94
2023-06-19T19:00:21.045Z,99671.41
2023-06-19T19:02:51.186Z,99671.81
2023-06-19T19:05:18.357Z,99673.88
2023-06-19T19:07:45.318Z,99674.28
2023-06-19T19:10:12.366Z,99680.31
2023-06-19T19:12:39.329Z,99674.53
2023-06-19T19:15:07.100Z,99688.03
2023-06-19T19:17:34.156Z,99682.19
2023-06-19T19:20:04.829Z,99677.00
2023-06-19T19:22:31.848Z,99659.94
2023-06-19T19:24:58.820Z,99654.34
2023-06-19T19:27:25.820Z,99650.13
2023-06-19T19:29:52.914Z,99644.31
2023-06-19T19:32:22.452Z,99644.31
2023-06-19T19:34:49.562Z,99637.91
2023-06-19T19:37:16.472Z,99629.78
2023-06-19T19:39:43.386Z,99643.94
2023-06-19T19:42:10.374Z,99643.94
2023-06-19T19:44:37.326Z,99636.66
2023-06-19T19:47:04.562Z,99642.06
2023-06-19T19:49:31.648Z,99644.75
2023-06-19T19:51:58.499Z,99649.72
2023-06-19T19:54:25.369Z,99648.22
2023-06-19T19:56:52.256Z,99653.88
2023-06-19T19:59:19.092Z,99645.97
2023-06-19T20:01:46.020Z,99643.88
2023-06-19T20:04:15.117Z,99634.50
2023-06-19T20:06:44.363Z,99644.72
2023-06-19T20:09:11.572Z,99626.81
2023-06-19T20:11:39.178Z,99624.34
2023-06-19T20:14:06.103Z,99643.84
2023-06-19T20:16:34.348Z,99647.56
2023-06-19T20:19:01.591Z,99661.91
2023-06-19T20:21:31.848Z,99655.16
2023-06-19T20:23:58.803Z,99657.53
2023-06-19T20:26:25.675Z,99652.66
2023-06-19T20:28:52.569Z,99639.56
2023-06-19T20:31:19.502Z,99646.56
2023-06-19T20:33:46.402Z,99649.50
2023-06-19T20:36:13.394Z,99650.13
2023-06-19T20:38:40.268Z,99648.66
2023-06-19T20:41:07.255Z,99647.31
2023-06-19T20:43:34.192Z,99656.28
2023-06-19T20:46:01.872Z,99659.91
2023-06-19T20:48:29.853Z,99666.03
2023-06-19T20:50:57.737Z,99661.31
2023-06-19T20:53:24.686Z,99666.41
2023-06-19T20:55:51.617Z,99675.66
2023-06-19T20:58:18.550Z,99670.31
2023-06-19T21:00:46.513Z,99673.91
2023-06-19T21:03:13.649Z,99678.03
2023-06-19T21:05:40.739Z,99669.50
2023-06-19T21:08:08.579Z,99672.97
2023-06-19T21:10:35.523Z,99669.00
2023-06-19T21:13:20.915Z,99678.97
2023-06-19T21:15:50.521Z,99674.13
2023-06-19T21:18:18.764Z,99677.91
2023-06-19T21:20:45.728Z,99672.66
2023-06-19T21:23:12.679Z,99682.56
2023-06-19T21:25:40.408Z,99679.66
2023-06-19T21:28:07.353Z,99674.41
2023-06-19T21:30:34.243Z,99680.63
2023-06-19T21:33:01.541Z,99686.69
2023-06-19T21:35:28.788Z,99684.81
2023-06-19T21:37:55.756Z,99684.50
2023-06-19T21:40:23.845Z,99672.44
2023-06-19T21:42:51.138Z,99680.44
2023-06-19T21:45:18.093Z,99688.31
2023-06-19T21:47:45.664Z,99690.38
2023-06-19T21:50:14.424Z,99684.78
2023-06-19T21:52:42.680Z,99687.59
2023-06-19T21:55:10.009Z,99684.66
2023-06-19T21:57:53.895Z,99689.00
2023-06-19T22:00:26.325Z,99681.50
2023-06-19T22:02:53.652Z,99678.94
2023-06-19T22:05:20.700Z,99686.81
2023-06-19T22:07:47.623Z,99687.50
2023-06-19T22:10:14.526Z,99679.13
2023-06-19T22:12:41.580Z,99680.66
2023-06-19T22:15:08.951Z,99686.88
2023-06-19T22:17:35.787Z,99693.75
2023-06-19T22:20:04.318Z,99694.59
2023-06-19T22:22:31.276Z,99695.84
2023-06-19T22:24:58.099Z,99684.75
2023-06-19T22:27:24.953Z,99688.66
2023-06-19T22:29:51.847Z,99683.19
2023-06-19T22:32:20.153Z,99700.53
2023-06-19T22:34:47.287Z,99697.72
2023-06-19T22:37:15.210Z,99699.59
2023-06-19T22:39:43.746Z,99696.06
2023-06-19T22:42:10.605Z,99700.06
2023-06-19T22:44:37.751Z,99700.06
2023-06-19T22:47:04.841Z,99697.34
2023-06-19T22:49:31.761Z,99703.25
2023-06-19T22:51:58.627Z,99696.00
2023-06-19T22:54:25.595Z,99703.91
2023-06-19T22:56:52.608Z,99702.63
2023-06-19T22:59:19.526Z,99698.38
2023-06-19T23:01:46.567Z,99683.69
2023-06-19T23:04:13.508Z,99688.66
2023-06-19T23:06:43.583Z,99689.50
2023-06-19T23:09:12.201Z,99697.75
2023-06-19T23:11:39.445Z,99694.16
2023-06-19T23:14:07.017Z,99697.44
2023-06-19T23:16:34.041Z,99686.75
2023-06-19T23:19:01.129Z,99691.66
2023-06-19T23:21:31.497Z,99691.88
2023-06-19T23:23:59.628Z,99693.53
2023-06-19T23:26:26.733Z,99680.31
2023-06-19T23:28:54.721Z,99683.09
2023-06-19T23:31:24.911Z,99688.19
2023-06-19T23:33:52.729Z,99689.59
2023-06-19T23:36:19.758Z,99691.72
2023-06-19T23:38:49.130Z,99692.84
2023-06-19T23:41:15.982Z,99688.84
2023-06-19T23:43:42.793Z,99695.38
2023-06-19T23:46:09.773Z,99698.09
2023-06-19T23:48:36.667Z,99691.94
2023-06-19T23:51:04.551Z,99700.31
2023-06-19T23:53:31.619Z,99697.75
2023-06-19T23:55:58.449Z,99698.16
2023-06-19T23:58:25.562Z,99698.22
